Terminal Aerodrome Forecast
Issued by NWS

Home | Current Version | Previous Version | Text Only | Print | Product List | Glossary Off
Versions: 1 2 3 4 5 6 7 8 9 10 11 12 13 14 15 16 17 18 19 20 21 22

150
FTUS43 KABR 171740
TAFMBG
TAF
KMBG 171740Z 1718/1818 14020G28KT P6SM BKN100
     FM180000 09012KT P6SM -RA OVC050
     FM180500 05007KT 5SM -RASN OVC015
     FM180900 36006KT 2SM -SN OVC008
     FM181200 34008KT P6SM OVC008=

USA.gov is the U.S. government's official web portal to all federal, state and local government web resources and services.